sensor_id;sensor_type;location;lat;lon;timestamp;pressure;altitude;pressure_sealevel;temperature;humidity
41712;BME280;27399;51.516;13.670;2022-10-22T00:00:53;100063.69;;;14.55;86.61
41712;BME280;27399;51.516;13.670;2022-10-22T00:03:20;100068.81;;;13.70;89.54
41712;BME280;27399;51.516;13.670;2022-10-22T00:05:46;100093.25;;;13.58;91.22
41712;BME280;27399;51.516;13.670;2022-10-22T00:08:12;100093.47;;;14.16;89.90
41712;BME280;27399;51.516;13.670;2022-10-22T00:10:39;100078.00;;;14.26;88.73
41712;BME280;27399;51.516;13.670;2022-10-22T00:13:05;100092.66;;;14.13;88.42
41712;BME280;27399;51.516;13.670;2022-10-22T00:15:31;100095.22;;;14.17;88.29
41712;BME280;27399;51.516;13.670;2022-10-22T00:17:57;100081.59;;;14.25;87.89
41712;BME280;27399;51.516;13.670;2022-10-22T00:20:23;100092.34;;;14.23;87.16
41712;BME280;27399;51.516;13.670;2022-10-22T00:22:48;100073.69;;;14.20;87.07
41712;BME280;27399;51.516;13.670;2022-10-22T00:25:15;100073.56;;;14.25;86.71
41712;BME280;27399;51.516;13.670;2022-10-22T00:27:40;100071.97;;;14.18;87.42
41712;BME280;27399;51.516;13.670;2022-10-22T00:30:07;100069.16;;;14.22;86.91
41712;BME280;27399;51.516;13.670;2022-10-22T00:32:33;100056.06;;;14.12;87.37
41712;BME280;27399;51.516;13.670;2022-10-22T00:34:59;100051.53;;;14.14;87.18
41712;BME280;27399;51.516;13.670;2022-10-22T00:37:24;100045.16;;;14.18;87.74
41712;BME280;27399;51.516;13.670;2022-10-22T00:39:50;100036.31;;;14.14;88.35
41712;BME280;27399;51.516;13.670;2022-10-22T00:42:22;100036.63;;;14.03;88.77
41712;BME280;27399;51.516;13.670;2022-10-22T00:45:21;100044.31;;;14.16;88.64
41712;BME280;27399;51.516;13.670;2022-10-22T00:48:03;100064.00;;;14.15;88.60
41712;BME280;27399;51.516;13.670;2022-10-22T00:50:42;100048.13;;;14.07;88.54
41712;BME280;27399;51.516;13.670;2022-10-22T00:53:22;100055.75;;;14.22;88.42
41712;BME280;27399;51.516;13.670;2022-10-22T00:55:51;100045.81;;;14.26;88.50
41712;BME280;27399;51.516;13.670;2022-10-22T00:58:19;100049.41;;;14.25;88.85
41712;BME280;27399;51.516;13.670;2022-10-22T01:00:46;100041.53;;;14.19;88.83
41712;BME280;27399;51.516;13.670;2022-10-22T01:03:12;100049.97;;;14.36;88.29
41712;BME280;27399;51.516;13.670;2022-10-22T01:05:42;100044.75;;;14.32;88.63
41712;BME280;27399;51.516;13.670;2022-10-22T01:11:49;100065.59;;;14.22;88.21
41712;BME280;27399;51.516;13.670;2022-10-22T01:17:07;100066.44;;;14.24;88.53
41712;BME280;27399;51.516;13.670;2022-10-22T01:22:35;100065.59;;;14.22;88.93
41712;BME280;27399;51.516;13.670;2022-10-22T01:30:44;100060.88;;;14.30;89.30
41712;BME280;27399;51.516;13.670;2022-10-22T01:33:14;100065.44;;;14.28;89.84
41712;BME280;27399;51.516;13.670;2022-10-22T01:35:42;100059.00;;;14.34;89.53
41712;BME280;27399;51.516;13.670;2022-10-22T01:38:16;100052.69;;;14.35;90.19
41712;BME280;27399;51.516;13.670;2022-10-22T01:40:43;100055.78;;;14.51;89.39
41712;BME280;27399;51.516;13.670;2022-10-22T01:43:10;100057.44;;;14.55;89.20
41712;BME280;27399;51.516;13.670;2022-10-22T01:45:41;100050.53;;;14.48;89.51
41712;BME280;27399;51.516;13.670;2022-10-22T01:50:52;100055.59;;;14.57;89.10
41712;BME280;27399;51.516;13.670;2022-10-22T01:53:57;100050.25;;;14.57;89.20
41712;BME280;27399;51.516;13.670;2022-10-22T01:56:44;100056.53;;;14.56;89.42
41712;BME280;27399;51.516;13.670;2022-10-22T02:05:07;100056.47;;;14.57;89.25
41712;BME280;27399;51.516;13.670;2022-10-22T02:07:41;100059.22;;;14.56;89.28
41712;BME280;27399;51.516;13.670;2022-10-22T02:10:08;100056.47;;;14.57;88.95
41712;BME280;27399;51.516;13.670;2022-10-22T02:12:36;100059.28;;;14.53;89.65
41712;BME280;27399;51.516;13.670;2022-10-22T02:15:03;100056.63;;;14.53;90.03
41712;BME280;27399;51.516;13.670;2022-10-22T02:17:30;100055.31;;;14.66;89.45
41712;BME280;27399;51.516;13.670;2022-10-22T02:20:07;100053.53;;;14.67;89.43
41712;BME280;27399;51.516;13.670;2022-10-22T02:22:34;100055.41;;;14.63;89.67
41712;BME280;27399;51.516;13.670;2022-10-22T02:25:02;100044.66;;;14.63;89.90
41712;BME280;27399;51.516;13.670;2022-10-22T02:27:44;100047.34;;;14.63;89.88
41712;BME280;27399;51.516;13.670;2022-10-22T02:30:17;100045.47;;;14.67;90.00
41712;BME280;27399;51.516;13.670;2022-10-22T02:35:33;100048.81;;;14.75;89.58
41712;BME280;27399;51.516;13.670;2022-10-22T02:38:00;100047.34;;;14.63;90.36
41712;BME280;27399;51.516;13.670;2022-10-22T02:40:27;100041.56;;;14.77;89.86
41712;BME280;27399;51.516;13.670;2022-10-22T02:42:55;100036.03;;;14.83;89.36
41712;BME280;27399;51.516;13.670;2022-10-22T02:45:20;100040.72;;;14.77;89.76
41712;BME280;27399;51.516;13.670;2022-10-22T02:47:46;100041.31;;;14.86;89.58
41712;BME280;27399;51.516;13.670;2022-10-22T02:50:12;100042.16;;;14.87;89.44
41712;BME280;27399;51.516;13.670;2022-10-22T02:52:38;100040.41;;;14.86;89.74
41712;BME280;27399;51.516;13.670;2022-10-22T02:55:04;100033.91;;;14.93;89.48
41712;BME280;27399;51.516;13.670;2022-10-22T02:57:31;100044.03;;;14.85;89.94
41712;BME280;27399;51.516;13.670;2022-10-22T02:59:57;100042.09;;;14.90;89.90
41712;BME280;27399;51.516;13.670;2022-10-22T03:02:22;100044.78;;;14.88;89.92
41712;BME280;27399;51.516;13.670;2022-10-22T03:04:48;100045.69;;;14.89;90.03
41712;BME280;27399;51.516;13.670;2022-10-22T03:07:13;100044.78;;;14.88;89.96
41712;BME280;27399;51.516;13.670;2022-10-22T03:09:39;100046.78;;;14.82;90.47
41712;BME280;27399;51.516;13.670;2022-10-22T03:12:05;100035.97;;;14.85;90.01
41712;BME280;27399;51.516;13.670;2022-10-22T03:14:33;100039.44;;;14.88;89.91
41712;BME280;27399;51.516;13.670;2022-10-22T03:16:59;100039.19;;;14.96;89.64
41712;BME280;27399;51.516;13.670;2022-10-22T03:19:25;100037.81;;;14.83;89.91
41712;BME280;27399;51.516;13.670;2022-10-22T03:22:16;100026.69;;;14.95;89.51
41712;BME280;27399;51.516;13.670;2022-10-22T03:24:45;100032.34;;;14.86;90.05
41712;BME280;27399;51.516;13.670;2022-10-22T03:27:14;100033.03;;;14.93;89.92
41712;BME280;27399;51.516;13.670;2022-10-22T03:29:41;100038.47;;;14.91;89.92
41712;BME280;27399;51.516;13.670;2022-10-22T03:32:07;100038.41;;;14.93;89.68
41712;BME280;27399;51.516;13.670;2022-10-22T03:34:33;100032.06;;;14.95;89.97
41712;BME280;27399;51.516;13.670;2022-10-22T03:37:00;100036.81;;;14.87;90.12
41712;BME280;27399;51.516;13.670;2022-10-22T03:39:28;100021.38;;;14.94;89.81
41712;BME280;27399;51.516;13.670;2022-10-22T03:41:55;100028.00;;;14.82;90.24
41712;BME280;27399;51.516;13.670;2022-10-22T03:44:21;100033.50;;;14.79;90.07
41712;BME280;27399;51.516;13.670;2022-10-22T03:46:47;100036.03;;;14.83;89.71
41712;BME280;27399;51.516;13.670;2022-10-22T03:49:13;100044.66;;;14.63;90.58
41712;BME280;27399;51.516;13.670;2022-10-22T03:51:39;100054.28;;;14.72;90.21
41712;BME280;27399;51.516;13.670;2022-10-22T03:54:05;100065.72;;;14.79;90.41
41712;BME280;27399;51.516;13.670;2022-10-22T03:56:30;100061.56;;;14.68;90.51
41712;BME280;27399;51.516;13.670;2022-10-22T03:58:57;100064.97;;;14.74;90.06
41712;BME280;27399;51.516;13.670;2022-10-22T04:01:24;100071.22;;;14.74;90.62
41712;BME280;27399;51.516;13.670;2022-10-22T04:03:50;100079.97;;;14.81;90.22
41712;BME280;27399;51.516;13.670;2022-10-22T04:06:16;100082.09;;;14.69;90.53
41712;BME280;27399;51.516;13.670;2022-10-22T04:08:43;100078.22;;;14.78;90.10
41712;BME280;27399;51.516;13.670;2022-10-22T04:11:09;100073.63;;;14.82;89.68
41712;BME280;27399;51.516;13.670;2022-10-22T04:13:35;100074.47;;;14.84;89.84
41712;BME280;27399;51.516;13.670;2022-10-22T04:16:18;100074.47;;;14.84;89.94
41712;BME280;27399;51.516;13.670;2022-10-22T04:18:46;100079.84;;;14.84;90.27
41712;BME280;27399;51.516;13.670;2022-10-22T04:21:14;100085.03;;;14.90;90.26
41712;BME280;27399;51.516;13.670;2022-10-22T04:23:48;100088.94;;;14.80;90.75
41712;BME280;27399;51.516;13.670;2022-10-22T04:26:14;100089.47;;;14.91;90.60
41712;BME280;27399;51.516;13.670;2022-10-22T04:28:41;100085.72;;;14.97;90.35
41712;BME280;27399;51.516;13.670;2022-10-22T04:31:09;100090.03;;;15.01;90.15
41712;BME280;27399;51.516;13.670;2022-10-22T04:33:35;100087.03;;;14.83;91.35
41712;BME280;27399;51.516;13.670;2022-10-22T04:36:08;100099.94;;;14.99;90.63
41712;BME280;27399;51.516;13.670;2022-10-22T04:38:34;100093.03;;;14.92;91.04
41712;BME280;27399;51.516;13.670;2022-10-22T04:41:09;100082.81;;;15.03;90.32
41712;BME280;27399;51.516;13.670;2022-10-22T04:43:35;100085.50;;;15.03;90.42
41712;BME280;27399;51.516;13.670;2022-10-22T04:46:01;100082.91;;;15.00;91.25
41712;BME280;27399;51.516;13.670;2022-10-22T04:48:27;100083.69;;;15.03;90.89
41712;BME280;27399;51.516;13.670;2022-10-22T04:50:52;100073.00;;;15.02;90.85
41712;BME280;27399;51.516;13.670;2022-10-22T04:53:18;100067.31;;;15.13;90.67
41712;BME280;27399;51.516;13.670;2022-10-22T04:55:43;100061.88;;;15.14;90.70
41712;BME280;27399;51.516;13.670;2022-10-22T04:58:09;100059.34;;;15.10;90.77
41712;BME280;27399;51.516;13.670;2022-10-22T05:00:34;100068.22;;;15.12;90.42
41712;BME280;27399;51.516;13.670;2022-10-22T05:03:00;100066.63;;;15.06;91.13
41712;BME280;27399;51.516;13.670;2022-10-22T05:05:25;100067.41;;;15.10;90.85
41712;BME280;27399;51.516;13.670;2022-10-22T05:07:51;100075.47;;;15.08;90.84
41712;BME280;27399;51.516;13.670;2022-10-22T05:10:17;100076.22;;;14.85;91.63
41712;BME280;27399;51.516;13.670;2022-10-22T05:12:42;100085.66;;;14.98;91.21
41712;BME280;27399;51.516;13.670;2022-10-22T05:15:08;100077.66;;;14.97;91.53
41712;BME280;27399;51.516;13.670;2022-10-22T05:17:35;100079.06;;;15.09;90.66
41712;BME280;27399;51.516;13.670;2022-10-22T05:20:02;100074.56;;;15.09;90.62
41712;BME280;27399;51.516;13.670;2022-10-22T05:22:28;100080.72;;;15.13;90.51
41712;BME280;27399;51.516;13.670;2022-10-22T05:24:53;100079.75;;;15.15;90.03
41712;BME280;27399;51.516;13.670;2022-10-22T05:27:19;100080.00;;;15.08;90.30
41712;BME280;27399;51.516;13.670;2022-10-22T05:29:44;100072.38;;;14.94;90.68
41712;BME280;27399;51.516;13.670;2022-10-22T05:32:10;100085.44;;;15.06;90.31
41712;BME280;27399;51.516;13.670;2022-10-22T05:34:36;100078.28;;;15.05;90.64
41712;BME280;27399;51.516;13.670;2022-10-22T05:37:01;100082.69;;;15.08;90.60
41712;BME280;27399;51.516;13.670;2022-10-22T05:39:27;100083.75;;;15.02;90.95
41712;BME280;27399;51.516;13.670;2022-10-22T05:41:52;100087.22;;;15.06;90.89
41712;BME280;27399;51.516;13.670;2022-10-22T05:44:18;100088.97;;;15.07;90.58
41712;BME280;27399;51.516;13.670;2022-10-22T05:46:44;100097.13;;;15.03;91.11
41712;BME280;27399;51.516;13.670;2022-10-22T05:49:12;100105.84;;;15.12;90.61
41712;BME280;27399;51.516;13.670;2022-10-22T05:51:38;100107.78;;;15.07;91.25
41712;BME280;27399;51.516;13.670;2022-10-22T05:54:06;100100.63;;;15.06;91.23
41712;BME280;27399;51.516;13.670;2022-10-22T05:56:33;100105.91;;;15.09;91.09
41712;BME280;27399;51.516;13.670;2022-10-22T05:58:59;100108.69;;;15.06;91.30
41712;BME280;27399;51.516;13.670;2022-10-22T06:01:30;100108.66;;;15.07;91.13
41712;BME280;27399;51.516;13.670;2022-10-22T06:03:58;100117.19;;;14.92;92.29
41712;BME280;27399;51.516;13.670;2022-10-22T06:09:00;100119.28;;;15.10;91.91
41712;BME280;27399;51.516;13.670;2022-10-22T06:11:26;100117.44;;;15.12;92.29
41712;BME280;27399;51.516;13.670;2022-10-22T06:13:52;100119.13;;;15.15;92.14
41712;BME280;27399;51.516;13.670;2022-10-22T06:16:18;100120.06;;;15.14;92.33
41712;BME280;27399;51.516;13.670;2022-10-22T06:18:43;100121.03;;;15.13;92.21
41712;BME280;27399;51.516;13.670;2022-10-22T06:21:12;100130.31;;;15.01;93.42
41712;BME280;27399;51.516;13.670;2022-10-22T06:23:39;100128.09;;;15.15;93.60
41712;BME280;27399;51.516;13.670;2022-10-22T06:26:05;100144.69;;;15.28;92.62
41712;BME280;27399;51.516;13.670;2022-10-22T06:28:31;100142.44;;;15.14;93.61
41712;BME280;27399;51.516;13.670;2022-10-22T06:30:58;100132.47;;;15.18;93.01
41712;BME280;27399;51.516;13.670;2022-10-22T06:33:24;100125.16;;;15.23;92.64
41712;BME280;27399;51.516;13.670;2022-10-22T06:35:50;100136.28;;;15.39;92.06
41712;BME280;27399;51.516;13.670;2022-10-22T06:38:16;100133.00;;;15.29;92.94
41712;BME280;27399;51.516;13.670;2022-10-22T06:40:41;100133.84;;;15.31;92.28
41712;BME280;27399;51.516;13.670;2022-10-22T06:43:10;100134.47;;;15.40;92.33
41712;BME280;27399;51.516;13.670;2022-10-22T06:45:35;100140.59;;;15.45;92.42
41712;BME280;27399;51.516;13.670;2022-10-22T06:48:01;100145.00;;;15.46;92.34
41712;BME280;27399;51.516;13.670;2022-10-22T06:50:27;100145.84;;;15.48;92.13
41712;BME280;27399;51.516;13.670;2022-10-22T06:52:52;100156.69;;;15.45;92.60
41712;BME280;27399;51.516;13.670;2022-10-22T06:55:18;100158.34;;;15.49;92.16
41712;BME280;27399;51.516;13.670;2022-10-22T06:57:43;100165.25;;;15.56;91.67
41712;BME280;27399;51.516;13.670;2022-10-22T07:00:09;100172.75;;;15.46;92.87
41712;BME280;27399;51.516;13.670;2022-10-22T07:02:35;100187.66;;;15.57;92.02
41712;BME280;27399;51.516;13.670;2022-10-22T07:05:01;100197.63;;;15.53;93.45
41712;BME280;27399;51.516;13.670;2022-10-22T07:07:26;100204.94;;;15.49;93.07
41712;BME280;27399;51.516;13.670;2022-10-22T07:09:52;100203.53;;;15.64;92.24
41712;BME280;27399;51.516;13.670;2022-10-22T07:12:18;100201.03;;;15.58;93.22
41712;BME280;27399;51.516;13.670;2022-10-22T07:14:43;100202.72;;;15.61;93.01
41712;BME280;27399;51.516;13.670;2022-10-22T07:17:09;100193.88;;;15.59;92.91
41712;BME280;27399;51.516;13.670;2022-10-22T07:19:34;100193.56;;;15.68;92.79
41712;BME280;27399;51.516;13.670;2022-10-22T07:22:00;100205.09;;;15.72;92.72
41712;BME280;27399;51.516;13.670;2022-10-22T07:24:26;100216.53;;;15.77;92.28
41712;BME280;27399;51.516;13.670;2022-10-22T07:26:52;100209.63;;;15.70;93.32
41712;BME280;27399;51.516;13.670;2022-10-22T07:29:18;100213.06;;;15.75;93.18
41712;BME280;27399;51.516;13.670;2022-10-22T07:31:44;100211.31;;;15.72;93.54
41712;BME280;27399;51.516;13.670;2022-10-22T07:34:09;100216.44;;;15.80;93.62
41712;BME280;27399;51.516;13.670;2022-10-22T07:36:35;100219.00;;;15.86;92.57
41712;BME280;27399;51.516;13.670;2022-10-22T07:39:01;100217.84;;;15.93;92.47
41712;BME280;27399;51.516;13.670;2022-10-22T07:41:28;100219.78;;;15.88;93.24
41712;BME280;27399;51.516;13.670;2022-10-22T07:43:55;100217.91;;;15.92;93.19
41712;BME280;27399;51.516;13.670;2022-10-22T07:46:21;100215.97;;;15.95;92.82
41712;BME280;27399;51.516;13.670;2022-10-22T07:48:47;100205.00;;;16.02;92.43
41712;BME280;27399;51.516;13.670;2022-10-22T07:51:13;100203.38;;;15.98;93.39
41712;BME280;27399;51.516;13.670;2022-10-22T07:53:39;100207.63;;;16.03;93.27
41712;BME280;27399;51.516;13.670;2022-10-22T07:56:06;100212.06;;;16.04;93.13
41712;BME280;27399;51.516;13.670;2022-10-22T07:58:32;100212.22;;;16.01;94.11
41712;BME280;27399;51.516;13.670;2022-10-22T08:01:00;100221.88;;;16.07;94.12
41712;BME280;27399;51.516;13.670;2022-10-22T08:03:26;100212.22;;;16.01;94.16
41712;BME280;27399;51.516;13.670;2022-10-22T08:05:53;100224.25;;;16.16;92.48
41712;BME280;27399;51.516;13.670;2022-10-22T08:08:19;100227.75;;;16.18;92.78
41712;BME280;27399;51.516;13.670;2022-10-22T08:10:46;100239.28;;;16.22;92.68
41712;BME280;27399;51.516;13.670;2022-10-22T08:13:13;100244.50;;;16.26;92.54
41712;BME280;27399;51.516;13.670;2022-10-22T08:15:38;100245.50;;;16.24;93.52
41712;BME280;27399;51.516;13.670;2022-10-22T08:18:04;100245.19;;;16.33;92.04
41712;BME280;27399;51.516;13.670;2022-10-22T08:20:30;100250.75;;;16.27;93.54
41712;BME280;27399;51.516;13.670;2022-10-22T08:22:56;100262.13;;;16.35;93.16
41712;BME280;27399;51.516;13.670;2022-10-22T08:25:22;100263.66;;;16.17;94.45
41712;BME280;27399;51.516;13.670;2022-10-22T08:27:48;100253.34;;;16.30;94.16
41712;BME280;27399;51.516;13.670;2022-10-22T08:30:14;100255.78;;;16.38;94.05
41712;BME280;27399;51.516;13.670;2022-10-22T08:32:40;100276.25;;;16.42;94.68
41712;BME280;27399;51.516;13.670;2022-10-22T08:35:06;100282.19;;;16.52;94.17
41712;BME280;27399;51.516;13.670;2022-10-22T08:37:32;100279.34;;;16.56;93.33
41712;BME280;27399;51.516;13.670;2022-10-22T08:39:58;100273.47;;;16.45;95.12
41712;BME280;27399;51.516;13.670;2022-10-22T08:42:58;100278.31;;;16.61;93.63
41712;BME280;27399;51.516;13.670;2022-10-22T08:45:42;100278.06;;;16.67;93.46
41712;BME280;27399;51.516;13.670;2022-10-22T08:48:42;100275.50;;;16.64;93.68
41712;BME280;27399;51.516;13.670;2022-10-22T08:51:16;100279.50;;;16.77;93.35
41712;BME280;27399;51.516;13.670;2022-10-22T08:56:13;100278.72;;;16.73;94.40
41712;BME280;27399;51.516;13.670;2022-10-22T08:58:49;100279.50;;;16.77;94.67
41712;BME280;27399;51.516;13.670;2022-10-22T09:07:57;100283.19;;;17.00;93.84
41712;BME280;27399;51.516;13.670;2022-10-22T09:10:33;100284.78;;;17.06;93.62
41712;BME280;27399;51.516;13.670;2022-10-22T09:13:00;100282.13;;;17.04;94.75
41712;BME280;27399;51.516;13.670;2022-10-22T09:15:29;100281.91;;;17.10;94.73
41712;BME280;27399;51.516;13.670;2022-10-22T09:18:09;100285.78;;;17.03;95.92
41712;BME280;27399;51.516;13.670;2022-10-22T09:20:48;100274.59;;;17.14;95.33
41712;BME280;27399;51.516;13.670;2022-10-22T09:24:05;100274.88;;;17.06;96.49
41712;BME280;27399;51.516;13.670;2022-10-22T09:26:33;100272.53;;;17.21;95.66
41712;BME280;27399;51.516;13.670;2022-10-22T09:29:00;100284.97;;;17.25;96.18
41712;BME280;27399;51.516;13.670;2022-10-22T09:31:28;100281.19;;;17.29;95.47
41712;BME280;27399;51.516;13.670;2022-10-22T09:33:54;100282.03;;;17.31;95.57
41712;BME280;27399;51.516;13.670;2022-10-22T09:36:22;100281.84;;;17.35;95.00
41712;BME280;27399;51.516;13.670;2022-10-22T09:38:50;100281.00;;;17.33;95.73
41712;BME280;27399;51.516;13.670;2022-10-22T09:41:18;100282.38;;;17.22;96.08
41712;BME280;27399;51.516;13.670;2022-10-22T09:43:48;100286.69;;;17.26;96.41
41712;BME280;27399;51.516;13.670;2022-10-22T09:46:26;100282.88;;;17.31;96.39
41712;BME280;27399;51.516;13.670;2022-10-22T09:49:08;100287.97;;;17.39;95.59
41712;BME280;27399;51.516;13.670;2022-10-22T09:54:22;100288.44;;;17.50;95.01
41712;BME280;27399;51.516;13.670;2022-10-22T09:57:16;100286.47;;;17.32;97.04
41712;BME280;27399;51.516;13.670;2022-10-22T09:59:43;100292.56;;;17.37;96.91
41712;BME280;27399;51.516;13.670;2022-10-22T10:02:13;100285.44;;;17.12;97.62
41712;BME280;27399;51.516;13.670;2022-10-22T10:04:41;100281.84;;;17.35;96.99
41712;BME280;27399;51.516;13.670;2022-10-22T10:07:31;100286.22;;;17.38;97.94
41712;BME280;27399;51.516;13.670;2022-10-22T10:09:57;100291.50;;;17.41;97.16
41712;BME280;27399;51.516;13.670;2022-10-22T10:15:17;100296.59;;;17.49;96.57
41712;BME280;27399;51.516;13.670;2022-10-22T10:18:10;100291.53;;;17.63;95.35
41712;BME280;27399;51.516;13.670;2022-10-22T10:23:51;100290.53;;;17.66;95.38
41712;BME280;27399;51.516;13.670;2022-10-22T10:26:30;100297.09;;;17.59;96.54
41712;BME280;27399;51.516;13.670;2022-10-22T10:37:20;100293.75;;;17.30;96.33
41712;BME280;27399;51.516;13.670;2022-10-22T10:42:56;100291.72;;;17.59;95.42
41712;BME280;27399;51.516;13.670;2022-10-22T10:45:41;100290.72;;;17.61;95.74
41712;BME280;27399;51.516;13.670;2022-10-22T10:48:17;100294.28;;;17.62;95.69
41712;BME280;27399;51.516;13.670;2022-10-22T10:56:22;100304.22;;;17.84;94.51
41712;BME280;27399;51.516;13.670;2022-10-22T11:07:39;100307.09;;;17.79;95.96
41712;BME280;27399;51.516;13.670;2022-10-22T11:12:44;100305.25;;;18.03;94.72
41712;BME280;27399;51.516;13.670;2022-10-22T11:17:47;100308.88;;;18.02;93.88
41712;BME280;27399;51.516;13.670;2022-10-22T11:23:22;100311.00;;;18.16;94.71
41712;BME280;27399;51.516;13.670;2022-10-22T11:25:50;100320.09;;;18.14;94.77
41712;BME280;27399;51.516;13.670;2022-10-22T11:28:32;100304.75;;;18.16;96.05
41712;BME280;27399;51.516;13.670;2022-10-22T11:31:04;100312.38;;;18.26;94.58
41712;BME280;27399;51.516;13.670;2022-10-22T11:33:45;100320.81;;;18.19;94.53
41712;BME280;27399;51.516;13.670;2022-10-22T11:36:15;100320.84;;;18.39;94.26
41712;BME280;27399;51.516;13.670;2022-10-22T11:38:43;100316.63;;;18.32;93.50
41712;BME280;27399;51.516;13.670;2022-10-22T11:41:12;100323.03;;;18.52;93.84
41712;BME280;27399;51.516;13.670;2022-10-22T11:44:20;100318.69;;;18.68;92.17
41712;BME280;27399;51.516;13.670;2022-10-22T11:46:55;100314.22;;;18.47;92.48
41712;BME280;27399;51.516;13.670;2022-10-22T11:49:41;100313.78;;;18.78;93.53
41712;BME280;27399;51.516;13.670;2022-10-22T11:55:00;100318.38;;;18.97;90.18
41712;BME280;27399;51.516;13.670;2022-10-22T11:57:28;100317.34;;;18.79;91.22
41712;BME280;27399;51.516;13.670;2022-10-22T12:00:09;100322.22;;;19.12;89.67
41712;BME280;27399;51.516;13.670;2022-10-22T12:02:44;100323.81;;;19.16;89.81
41712;BME280;27399;51.516;13.670;2022-10-22T12:05:36;100332.94;;;19.13;89.12
41712;BME280;27399;51.516;13.670;2022-10-22T12:13:27;100319.28;;;19.16;89.09
41712;BME280;27399;51.516;13.670;2022-10-22T12:15:57;100318.66;;;19.30;89.82
41712;BME280;27399;51.516;13.670;2022-10-22T12:18:26;100315.50;;;19.20;89.31
41712;BME280;27399;51.516;13.670;2022-10-22T12:20:52;100320.78;;;19.43;89.13
41712;BME280;27399;51.516;13.670;2022-10-22T12:23:22;100323.47;;;19.43;88.35
41712;BME280;27399;51.516;13.670;2022-10-22T12:25:49;100315.50;;;19.40;88.06
41712;BME280;27399;51.516;13.670;2022-10-22T12:28:14;100323.63;;;19.40;87.32
41712;BME280;27399;51.516;13.670;2022-10-22T12:30:40;100319.97;;;19.41;87.63
41712;BME280;27399;51.516;13.670;2022-10-22T12:33:15;100322.97;;;19.34;86.98
41712;BME280;27399;51.516;13.670;2022-10-22T12:35:45;100329.78;;;19.62;86.63
41712;BME280;27399;51.516;13.670;2022-10-22T12:38:16;100323.69;;;19.76;86.86
41712;BME280;27399;51.516;13.670;2022-10-22T12:40:43;100322.59;;;19.61;86.35
41712;BME280;27399;51.516;13.670;2022-10-22T12:43:18;100316.25;;;19.81;86.71
41712;BME280;27399;51.516;13.670;2022-10-22T12:45:46;100322.09;;;19.72;86.12
41712;BME280;27399;51.516;13.670;2022-10-22T12:48:27;100318.44;;;19.92;86.32
41712;BME280;27399;51.516;13.670;2022-10-22T12:50:57;100318.44;;;19.92;86.83
41712;BME280;27399;51.516;13.670;2022-10-22T12:53:29;100319.81;;;19.82;86.93
41712;BME280;27399;51.516;13.670;2022-10-22T12:56:03;100325.00;;;20.06;85.88
41712;BME280;27399;51.516;13.670;2022-10-22T12:58:35;100318.63;;;19.89;84.76
41712;BME280;27399;51.516;13.670;2022-10-22T13:01:03;100324.09;;;19.88;84.60
41712;BME280;27399;51.516;13.670;2022-10-22T13:03:39;100317.97;;;20.02;85.42
41712;BME280;27399;51.516;13.670;2022-10-22T13:06:33;100326.03;;;19.84;87.67
41712;BME280;27399;51.516;13.670;2022-10-22T13:11:32;100325.25;;;20.01;85.63
41712;BME280;27399;51.516;13.670;2022-10-22T13:14:12;100328.81;;;20.02;86.18
41712;BME280;27399;51.516;13.670;2022-10-22T13:16:40;100341.13;;;19.90;85.84
41712;BME280;27399;51.516;13.670;2022-10-22T13:25:03;100346.63;;;19.88;84.97
41712;BME280;27399;51.516;13.670;2022-10-22T13:27:29;100339.44;;;19.87;85.09
41712;BME280;27399;51.516;13.670;2022-10-22T13:30:00;100344.41;;;19.96;86.21
41712;BME280;27399;51.516;13.670;2022-10-22T13:32:29;100330.88;;;19.96;85.49
41712;BME280;27399;51.516;13.670;2022-10-22T13:35:00;100346.81;;;20.03;85.94
41712;BME280;27399;51.516;13.670;2022-10-22T13:37:27;100340.06;;;20.11;84.36
41712;BME280;27399;51.516;13.670;2022-10-22T13:39:54;100338.53;;;20.06;85.97
41712;BME280;27399;51.516;13.670;2022-10-22T13:42:20;100356.44;;;20.08;85.07
41712;BME280;27399;51.516;13.670;2022-10-22T13:44:46;100342.50;;;19.99;84.23
41712;BME280;27399;51.516;13.670;2022-10-22T13:47:27;100351.22;;;19.86;82.67
41712;BME280;27399;51.516;13.670;2022-10-22T13:49:58;100350.00;;;20.11;83.36
41712;BME280;27399;51.516;13.670;2022-10-22T13:52:33;100358.69;;;20.18;83.80
41712;BME280;27399;51.516;13.670;2022-10-22T13:55:00;100359.09;;;20.10;84.49
41712;BME280;27399;51.516;13.670;2022-10-22T13:57:26;100356.53;;;20.07;83.51
41712;BME280;27399;51.516;13.670;2022-10-22T13:59:52;100350.63;;;19.99;84.10
41712;BME280;27399;51.516;13.670;2022-10-22T14:02:17;100356.63;;;19.86;85.09
41712;BME280;27399;51.516;13.670;2022-10-22T14:04:44;100355.47;;;19.92;82.95
41712;BME280;27399;51.516;13.670;2022-10-22T14:07:15;100355.72;;;20.05;83.90
41712;BME280;27399;51.516;13.670;2022-10-22T14:09:41;100361.00;;;20.08;84.45
41712;BME280;27399;51.516;13.670;2022-10-22T14:12:15;100359.25;;;20.07;84.86
41712;BME280;27399;51.516;13.670;2022-10-22T14:14:42;100355.09;;;20.00;85.20
41712;BME280;27399;51.516;13.670;2022-10-22T14:17:12;100362.91;;;20.06;84.23
41712;BME280;27399;51.516;13.670;2022-10-22T14:19:46;100361.88;;;20.08;84.75
41712;BME280;27399;51.516;13.670;2022-10-22T14:22:17;100360.88;;;19.92;85.49
41712;BME280;27399;51.516;13.670;2022-10-22T14:24:44;100358.81;;;19.78;86.24
41712;BME280;27399;51.516;13.670;2022-10-22T14:27:11;100355.09;;;20.00;85.60
41712;BME280;27399;51.516;13.670;2022-10-22T14:29:37;100359.84;;;19.94;85.96